createdAt,value
2018-04-12T03:32:34.618Z,98.30
2018-04-12T03:35:08.359Z,98.30
2018-04-12T03:37:42.227Z,98.30
2018-04-12T03:40:16.939Z,98.20
2018-04-12T03:42:50.738Z,98.20
2018-04-12T03:45:24.578Z,98.20
2018-04-12T03:47:59.125Z,98.10
2018-04-12T03:50:32.999Z,98.10
2018-04-12T03:53:06.744Z,98.10
2018-04-12T03:55:40.518Z,98.10
2018-04-12T03:58:35.070Z,98.10
2018-04-12T04:01:09.288Z,98.10
2018-04-12T04:03:43.036Z,98.10
2018-04-12T04:06:17.617Z,98.10
2018-04-12T04:08:52.936Z,98.10
2018-04-12T04:11:27.395Z,98.30
2018-04-12T04:14:01.950Z,98.20
2018-04-12T04:16:48.102Z,98.20
2018-04-12T04:22:25.023Z,98.10
2018-04-12T04:24:58.851Z,98.10
2018-04-12T04:27:33.409Z,98.10
2018-04-12T04:30:07.136Z,98.10
2018-04-12T04:32:40.951Z,98.00
2018-04-12T04:35:15.571Z,98.00
2018-04-12T04:37:49.287Z,98.00
2018-04-12T04:40:23.983Z,98.00
2018-04-12T04:42:57.870Z,98.00
2018-04-12T04:45:31.722Z,98.00
2018-04-12T04:48:05.554Z,97.90
2018-04-12T04:50:40.122Z,97.70
2018-04-12T04:53:13.994Z,97.70
2018-04-12T04:55:48.551Z,97.60
2018-04-12T04:58:22.527Z,97.60
2018-04-12T05:00:57.416Z,97.70
2018-04-12T05:03:31.099Z,97.70
2018-04-12T05:06:04.955Z,97.70
2018-04-12T05:08:38.720Z,97.90
2018-04-12T05:11:12.614Z,97.90
2018-04-12T05:13:47.473Z,98.00
2018-04-12T05:16:21.310Z,98.20
2018-04-12T05:18:55.236Z,98.10
2018-04-12T05:21:29.034Z,98.20
2018-04-12T05:24:02.855Z,98.20
2018-04-12T05:26:36.651Z,98.00
2018-04-12T05:29:11.087Z,98.10
2018-04-12T05:31:47.165Z,98.20
2018-04-12T05:34:21.506Z,98.20
2018-04-12T05:36:55.263Z,98.30
2018-04-12T05:39:29.158Z,98.10
2018-04-12T05:42:03.726Z,97.90
2018-04-12T05:44:38.374Z,97.90
2018-04-12T05:47:12.274Z,97.90
2018-04-12T05:49:46.094Z,97.70
2018-04-12T05:52:20.706Z,97.00
2018-04-12T05:54:54.456Z,97.00
2018-04-12T05:57:28.257Z,96.70
2018-04-12T06:00:02.131Z,96.30
2018-04-12T06:02:36.696Z,96.40
2018-04-12T06:05:13.045Z,96.50
2018-04-12T06:07:46.965Z,96.30
2018-04-12T06:10:21.761Z,96.40
2018-04-12T06:12:55.726Z,96.50
2018-04-12T06:15:29.854Z,96.30
2018-04-12T06:18:04.744Z,96.30
2018-04-12T06:20:38.512Z,96.30
2018-04-12T06:23:13.114Z,96.10
2018-04-12T06:25:47.710Z,96.00
2018-04-12T06:31:32.573Z,96.00
2018-04-12T06:34:07.762Z,95.70
2018-04-12T06:36:41.591Z,95.70
2018-04-12T06:39:16.210Z,95.10
2018-04-12T06:41:52.213Z,95.10
2018-04-12T06:44:28.170Z,95.10
2018-04-12T06:47:02.019Z,95.10
2018-04-12T06:49:35.771Z,95.00
2018-04-12T06:52:10.227Z,95.10
2018-04-12T06:54:44.421Z,94.90
2018-04-12T06:57:18.984Z,94.60
2018-04-12T06:59:52.782Z,94.60
2018-04-12T07:02:26.659Z,95.00
2018-04-12T07:05:01.203Z,94.60
2018-04-12T07:07:34.979Z,94.30
2018-04-12T07:10:08.758Z,94.40
2018-04-12T07:12:42.837Z,93.90
2018-04-12T07:15:16.667Z,93.80
2018-04-12T07:17:50.487Z,93.80
2018-04-12T07:20:25.274Z,93.70
2018-04-12T07:22:59.293Z,93.30
2018-04-12T07:25:33.064Z,93.10
2018-04-12T07:28:06.992Z,93.20
2018-04-12T07:30:40.787Z,92.70
2018-04-12T07:33:15.339Z,92.60
2018-04-12T07:35:49.979Z,92.00
2018-04-12T07:38:23.803Z,91.90
2018-04-12T07:40:58.410Z,91.90
2018-04-12T07:43:32.114Z,91.90
2018-04-12T07:46:05.954Z,91.70
2018-04-12T07:48:39.685Z,91.20
2018-04-12T07:51:14.350Z,90.10
2018-04-12T07:53:48.156Z,90.00
2018-04-12T07:56:26.757Z,87.50
2018-04-12T07:59:00.602Z,87.10
2018-04-12T08:01:34.470Z,86.20
2018-04-12T08:04:08.283Z,85.10
2018-04-12T08:06:42.311Z,84.60
2018-04-12T08:09:16.230Z,82.10
2018-04-12T08:11:50.330Z,81.20
2018-04-12T08:14:24.127Z,80.70
2018-04-12T08:16:58.016Z,79.40
2018-04-12T08:19:31.746Z,77.10
2018-04-12T08:24:30.595Z,73.90
2018-04-12T08:27:04.451Z,73.10
2018-04-12T08:29:38.275Z,74.10
2018-04-12T08:32:12.134Z,75.00
2018-04-12T08:34:45.975Z,74.50
2018-04-12T08:37:19.801Z,72.20
2018-04-12T08:39:53.512Z,71.50
2018-04-12T08:42:27.383Z,72.20
2018-04-12T08:45:01.951Z,69.20
2018-04-12T08:47:35.599Z,69.20
2018-04-12T08:50:09.475Z,69.20
2018-04-12T08:52:45.147Z,66.60
2018-04-12T08:55:19.039Z,66.20
2018-04-12T08:57:52.945Z,65.30
2018-04-12T09:00:26.821Z,65.70
2018-04-12T09:15:56.936Z,60.40
2018-04-12T09:18:31.416Z,58.90
2018-04-12T09:21:06.385Z,59.30
2018-04-12T09:23:40.249Z,59.00
2018-04-12T09:26:14.301Z,57.80
2018-04-12T09:28:48.002Z,55.00
2018-04-12T09:31:22.519Z,55.30
2018-04-12T09:33:56.222Z,55.30
2018-04-12T09:36:30.038Z,53.60
2018-04-12T09:39:03.862Z,51.60
2018-04-12T09:41:37.730Z,51.00
2018-04-12T09:44:11.577Z,50.40
2018-04-12T09:46:45.456Z,49.50
2018-04-12T09:49:20.095Z,48.10
2018-04-12T09:51:53.944Z,48.00
2018-04-12T09:54:28.623Z,48.40
2018-04-12T09:57:02.438Z,48.30
2018-04-12T09:59:36.266Z,47.70
2018-04-12T10:02:10.938Z,48.70
2018-04-12T10:04:51.254Z,50.00
2018-04-12T10:07:30.932Z,49.90
2018-04-12T10:10:05.595Z,48.50
2018-04-12T10:12:40.415Z,48.70
2018-04-12T10:15:14.106Z,48.70
2018-04-12T10:17:49.650Z,47.20
2018-04-12T10:20:24.106Z,46.30
2018-04-12T10:22:58.681Z,44.70
2018-04-12T10:25:32.570Z,44.60
2018-04-12T10:28:06.460Z,44.20
2018-04-12T10:30:40.948Z,43.90
2018-04-12T10:33:15.733Z,43.60
2018-04-12T10:35:50.212Z,44.90
2018-04-12T10:38:24.853Z,45.20
2018-04-12T10:40:58.615Z,45.10
2018-04-12T10:43:35.192Z,43.40
2018-04-12T10:46:09.061Z,43.40
2018-04-12T10:48:42.930Z,42.90
2018-04-12T10:51:16.653Z,42.60
2018-04-12T10:53:50.495Z,41.80
2018-04-12T10:56:25.062Z,40.70
2018-04-12T10:58:59.659Z,39.40
2018-04-12T11:01:33.481Z,39.30
2018-04-12T11:04:07.058Z,38.10
2018-04-12T11:06:41.209Z,38.50
2018-04-12T11:09:14.908Z,38.90
2018-04-12T11:11:48.826Z,36.40
2018-04-12T11:14:25.237Z,37.10
2018-04-12T11:16:58.979Z,37.10
2018-04-12T11:19:32.723Z,35.70
2018-04-12T11:22:07.231Z,35.50
2018-04-12T11:24:41.744Z,36.70
2018-04-12T11:27:15.563Z,36.30
2018-04-12T11:29:49.467Z,35.40
2018-04-12T11:32:23.368Z,35.10
2018-04-12T11:34:57.210Z,34.50
2018-04-12T11:37:31.662Z,33.90
2018-04-12T11:40:07.227Z,33.90
2018-04-12T11:42:41.859Z,33.30
2018-04-12T11:45:16.740Z,33.70
2018-04-12T11:47:51.194Z,33.70
2018-04-12T11:50:25.029Z,33.70
2018-04-12T11:52:58.807Z,33.80
2018-04-12T11:55:32.709Z,32.70
2018-04-12T11:58:06.503Z,33.00
2018-04-12T12:00:41.353Z,34.10
2018-04-12T12:03:15.040Z,34.10
2018-04-12T12:05:50.508Z,34.10
2018-04-12T12:08:25.216Z,34.00
2018-04-12T12:10:59.239Z,33.60
2018-04-12T12:13:33.759Z,33.40
2018-04-12T12:16:07.631Z,33.40
2018-04-12T12:18:42.382Z,35.10
2018-04-12T12:21:16.939Z,34.00
2018-04-12T12:23:50.791Z,34.10
2018-04-12T12:26:24.494Z,34.80
2018-04-12T12:28:58.943Z,35.10
2018-04-12T12:31:32.824Z,35.10
2018-04-12T12:34:07.367Z,35.50
2018-04-12T12:36:41.265Z,34.90
2018-04-12T12:39:15.805Z,35.40
2018-04-12T12:41:49.629Z,35.30
2018-04-12T12:44:23.460Z,34.80
2018-04-12T12:46:57.269Z,35.00
2018-04-12T12:49:30.967Z,35.50
2018-04-12T12:52:06.486Z,35.70
2018-04-12T12:54:41.004Z,35.60
2018-04-12T12:57:15.054Z,35.10
2018-04-12T12:59:48.674Z,35.60
2018-04-12T13:02:22.493Z,35.80
2018-04-12T13:04:56.269Z,35.00
2018-04-12T13:07:30.176Z,35.60
2018-04-12T13:10:04.671Z,35.10
2018-04-12T13:12:39.307Z,35.20
2018-04-12T13:15:12.943Z,35.10
2018-04-12T13:17:46.815Z,35.00
2018-04-12T13:20:20.563Z,34.40
2018-04-12T13:22:55.099Z,36.00
2018-04-12T13:25:28.869Z,36.00
2018-04-12T13:28:02.634Z,35.80
2018-04-12T13:30:36.413Z,35.40
2018-04-12T13:33:10.265Z,35.20
2018-04-12T13:35:44.007Z,34.90
2018-04-12T13:38:17.905Z,35.50
2018-04-12T13:40:51.682Z,35.70
2018-04-12T13:43:29.039Z,35.50
2018-04-12T13:46:02.862Z,35.50
2018-04-12T13:48:38.378Z,35.20
2018-04-12T13:51:12.272Z,35.10
2018-04-12T13:53:46.039Z,35.00
2018-04-12T13:56:21.667Z,36.10
2018-04-12T13:58:56.451Z,35.60
2018-04-12T14:01:31.664Z,35.90
2018-04-12T14:04:05.392Z,35.90
2018-04-12T14:06:39.962Z,35.10
2018-04-12T14:09:14.151Z,35.00
2018-04-12T14:11:48.820Z,35.50
2018-04-12T14:14:22.650Z,35.00
2018-04-12T14:16:57.354Z,35.60
2018-04-12T14:19:31.330Z,35.40
2018-04-12T14:22:06.009Z,33.80
2018-04-12T14:24:39.968Z,33.70
2018-04-12T14:27:14.624Z,35.00
2018-04-12T14:29:48.463Z,34.40
2018-04-12T14:32:23.380Z,34.60
2018-04-12T14:34:58.003Z,30.00
2018-04-12T14:37:32.583Z,30.50
2018-04-12T14:40:06.470Z,30.50
2018-04-12T14:42:41.163Z,26.70
2018-04-12T14:45:14.948Z,26.70
2018-04-12T14:47:48.758Z,28.80
2018-04-12T14:50:23.355Z,28.70
2018-04-12T14:52:57.801Z,27.00
2018-04-12T14:55:31.701Z,26.90
2018-04-12T14:58:05.543Z,26.30
2018-04-12T15:00:40.156Z,24.90
2018-04-12T15:03:16.912Z,25.00
2018-04-12T15:05:50.773Z,25.00
2018-04-12T15:08:25.257Z,25.10
2018-04-12T15:10:58.979Z,25.10
2018-04-12T15:13:32.822Z,24.50
2018-04-12T15:16:06.801Z,24.90
2018-04-12T15:18:40.578Z,25.10
2018-04-12T15:21:14.498Z,25.20
2018-04-12T15:23:48.279Z,25.10
2018-04-12T15:26:23.164Z,25.20
2018-04-12T15:28:56.980Z,25.60
2018-04-12T15:31:30.903Z,25.90
2018-04-12T15:34:05.455Z,25.30
2018-04-12T15:36:39.351Z,25.00
2018-04-12T15:39:13.772Z,24.90
2018-04-12T15:41:47.482Z,24.90
2018-04-12T15:44:21.314Z,26.00
2018-04-12T15:46:55.949Z,25.50
2018-04-12T15:49:31.149Z,25.60
2018-04-12T15:52:05.036Z,25.60
2018-04-12T15:54:38.838Z,26.00
2018-04-12T15:57:12.729Z,25.40
2018-04-12T15:59:47.298Z,25.10
2018-04-12T16:02:21.051Z,25.10
2018-04-12T16:04:54.822Z,25.00
2018-04-12T16:07:28.714Z,25.20
2018-04-12T16:10:02.594Z,26.30
2018-04-12T16:12:37.053Z,27.40
2018-04-12T16:15:10.835Z,27.40
2018-04-12T16:17:45.412Z,27.50
2018-04-12T16:20:19.180Z,27.50
2018-04-12T16:22:52.998Z,27.20
2018-04-12T16:25:26.884Z,27.40
2018-04-12T16:28:01.539Z,26.90
2018-04-12T16:30:36.160Z,27.40
2018-04-12T16:33:10.035Z,27.30
2018-04-12T16:35:44.673Z,27.70
2018-04-12T16:38:18.543Z,27.70
2018-04-12T16:40:52.271Z,26.10
2018-04-12T16:43:26.082Z,25.70
2018-04-12T16:46:00.620Z,26.10
2018-04-12T16:48:35.562Z,26.60
2018-04-12T16:51:10.794Z,26.50
2018-04-12T16:53:44.526Z,26.40
2018-04-12T16:56:19.132Z,26.30
2018-04-12T16:58:52.997Z,26.30
2018-04-12T17:01:26.791Z,26.60
2018-04-12T17:04:00.587Z,26.30
2018-04-12T17:06:34.502Z,26.10
2018-04-12T17:09:08.155Z,26.10
2018-04-12T17:11:41.931Z,26.40
2018-04-12T17:14:15.864Z,26.00
2018-04-12T17:16:50.394Z,26.50
2018-04-12T17:19:25.035Z,26.80
2018-04-12T17:21:58.751Z,26.80
2018-04-12T17:24:33.462Z,27.90
2018-04-12T17:27:07.235Z,27.80
2018-04-12T17:29:41.911Z,28.30
2018-04-12T17:32:15.699Z,28.20
2018-04-12T17:34:53.795Z,25.50
2018-04-12T17:37:28.213Z,25.40
2018-04-12T17:40:02.867Z,25.90
2018-04-12T17:42:36.692Z,25.90
2018-04-12T17:45:11.328Z,26.40
2018-04-12T17:47:46.008Z,26.40
2018-04-12T17:50:21.655Z,26.50
2018-04-12T17:52:55.474Z,26.40
2018-04-12T17:55:29.176Z,26.50
2018-04-12T17:58:03.764Z,26.20
2018-04-12T18:00:37.604Z,25.80
2018-04-12T18:03:11.490Z,25.50
2018-04-12T18:05:45.375Z,25.50
2018-04-12T18:08:20.162Z,25.80
2018-04-12T18:10:54.067Z,25.80
2018-04-12T18:13:27.931Z,25.60
2018-04-12T18:16:01.755Z,25.90
2018-04-12T18:18:36.161Z,27.80
2018-04-12T18:21:10.823Z,28.30
2018-04-12T18:23:44.623Z,28.30
2018-04-12T18:26:18.539Z,28.40
2018-04-12T18:28:52.508Z,28.90
2018-04-12T18:31:26.403Z,30.50
2018-04-12T18:34:00.946Z,33.70
2018-04-12T18:36:35.055Z,33.70
2018-04-12T18:39:08.950Z,34.30
2018-04-12T18:41:42.811Z,34.60
2018-04-12T18:44:17.383Z,35.50
2018-04-12T18:46:52.037Z,35.70
2018-04-12T18:49:26.648Z,35.70
2018-04-12T18:52:01.198Z,35.70
2018-04-12T18:54:34.954Z,35.70
2018-04-12T18:57:09.838Z,36.20
2018-04-12T18:59:43.543Z,36.20
2018-04-12T19:02:17.667Z,42.40
2018-04-12T19:04:51.523Z,55.60
2018-04-12T19:07:26.099Z,54.20
2018-04-12T19:09:59.969Z,54.10
2018-04-12T19:12:34.926Z,48.70
2018-04-12T19:15:08.624Z,49.50
2018-04-12T19:17:42.522Z,57.30
2018-04-12T19:20:16.375Z,56.90
2018-04-12T19:22:50.139Z,52.40
2018-04-12T19:25:24.747Z,47.60
2018-04-12T19:28:02.483Z,49.30
2018-04-12T19:30:36.058Z,49.20
2018-04-12T19:33:10.191Z,49.90
2018-04-12T19:35:44.267Z,51.40
2018-04-12T19:38:18.095Z,53.10
2018-04-12T19:40:52.623Z,57.40
2018-04-12T19:43:29.100Z,59.40
2018-04-12T19:46:03.709Z,64.20
2018-04-12T19:48:37.343Z,64.20
2018-04-12T19:51:11.116Z,68.40
2018-04-12T19:53:44.978Z,71.60
2018-04-12T19:56:19.546Z,76.10
2018-04-12T19:58:54.346Z,77.80
2018-04-12T20:01:28.168Z,77.90
2018-04-12T20:04:01.921Z,78.00
2018-04-12T20:06:36.520Z,79.40
2018-04-12T20:09:10.286Z,79.50
2018-04-12T20:11:44.160Z,81.10
2018-04-12T20:14:19.091Z,82.20
2018-04-12T20:16:52.775Z,82.10
2018-04-12T20:19:27.533Z,83.70
2018-04-12T20:22:01.239Z,83.70
2018-04-12T20:24:35.845Z,85.70
2018-04-12T20:27:10.455Z,86.10
2018-04-12T20:29:44.150Z,86.10
2018-04-12T20:32:17.977Z,86.00
2018-04-12T20:34:51.836Z,86.40
2018-04-12T20:37:25.531Z,86.80
2018-04-12T20:39:59.267Z,86.80
2018-04-12T20:42:33.096Z,87.40
2018-04-12T20:45:06.878Z,88.00
2018-04-12T20:47:40.727Z,88.40
2018-04-12T20:50:14.563Z,88.70
2018-04-12T20:52:49.455Z,89.60
2018-04-12T20:55:23.312Z,89.70
2018-04-12T20:57:57.217Z,90.00
